createdAt,value
2023-01-21T00:03:44.863Z,32.4
2023-01-21T00:08:55.520Z,33
2023-01-21T00:14:07.731Z,32.5
2023-01-21T00:19:21.773Z,32.5
2023-01-21T00:24:29.669Z,35.4
2023-01-21T00:29:40.912Z,34.7
2023-01-21T00:34:52.655Z,34.5
2023-01-21T00:40:06.381Z,36.7
2023-01-21T00:45:17.752Z,53.2
2023-01-21T00:50:29.451Z,37.6
2023-01-21T01:01:11.397Z,37.2
2023-01-21T01:06:23.643Z,51.6
2023-01-21T01:11:37.261Z,47.4
2023-01-21T01:16:53.243Z,33.7
2023-01-21T01:22:05.047Z,31.3
2023-01-21T01:27:16.168Z,32.2
2023-01-21T01:32:31.957Z,41.4
2023-01-21T01:37:47.586Z,33
2023-01-21T01:43:04.778Z,31.7
2023-01-21T01:48:16.440Z,31.1
2023-01-21T01:53:32.163Z,29
2023-01-21T01:58:43.832Z,27.3
2023-01-21T02:03:56.555Z,25.9
2023-01-21T02:14:36.234Z,25
2023-01-21T02:25:18.402Z,25.2
2023-01-21T02:30:30.764Z,35.5
2023-01-21T02:35:42.725Z,27
2023-01-21T02:41:06.657Z,24
2023-01-21T02:46:12.027Z,25.4
2023-01-21T03:02:27.007Z,27.5
2023-01-21T03:07:36.429Z,26.9
2023-01-21T03:28:59.575Z,30.5
2023-01-21T03:34:11.273Z,32.3
2023-01-21T03:55:31.818Z,34.5
2023-01-21T04:00:40.077Z,34.8
2023-01-21T04:22:20.789Z,34.8
2023-01-21T04:32:58.856Z,34.2
2023-01-21T04:38:10.632Z,46.7
2023-01-21T04:43:25.858Z,34.1
2023-01-21T04:48:35.099Z,45.8
2023-01-21T04:53:52.796Z,33.8
2023-01-21T05:04:24.828Z,30.7
2023-01-21T05:09:37.445Z,31.1
2023-01-21T05:14:51.293Z,46.3
2023-01-21T05:20:06.974Z,33.7
2023-01-21T05:30:44.787Z,30.2
2023-01-21T05:35:52.114Z,28.8
2023-01-21T05:41:10.887Z,43.3
2023-01-21T05:46:16.508Z,43.5
2023-01-21T05:51:32.038Z,30.4
2023-01-21T05:56:41.731Z,30
2023-01-21T06:18:22.359Z,28.4
2023-01-21T06:23:34.191Z,45.4
2023-01-21T06:28:45.327Z,31.7
2023-01-21T06:39:20.471Z,29.3
2023-01-21T06:50:03.530Z,27
2023-01-21T07:06:04.520Z,30.2
2023-01-21T07:11:18.285Z,30.7
2023-01-21T07:16:29.122Z,30.1
2023-01-21T07:27:10.281Z,30.4
2023-01-21T07:48:48.595Z,32.8
2023-01-21T07:59:25.125Z,31.8
2023-01-21T08:04:37.522Z,45.9
2023-01-21T08:09:53.085Z,32.4
2023-01-21T08:31:15.006Z,29.5
2023-01-21T08:36:27.640Z,26
2023-01-21T08:46:59.266Z,25.9
2023-01-21T08:52:09.410Z,37.8
2023-01-21T08:57:22.466Z,27.1
2023-01-21T09:13:29.474Z,22.9
2023-01-21T09:18:40.264Z,26
2023-01-21T09:23:53.306Z,36.5
2023-01-21T09:29:09.929Z,27.6
2023-01-21T09:39:42.340Z,26.8
2023-01-21T10:01:16.189Z,27.8
2023-01-21T10:11:56.449Z,27
2023-01-21T10:22:34.689Z,24.8
2023-01-21T10:27:42.849Z,22.3
2023-01-21T10:32:59.193Z,25.9
2023-01-21T10:38:09.549Z,26.5
2023-01-21T10:43:22.919Z,35.7
2023-01-21T10:48:34.728Z,28.8
2023-01-21T10:53:50.549Z,23
2023-01-21T10:59:06.427Z,23.1
2023-01-21T11:04:19.024Z,22.1
2023-01-21T11:09:32.179Z,20.6
2023-01-21T11:14:44.035Z,20
2023-01-21T11:30:52.167Z,25.4
2023-01-21T11:35:54.070Z,18.5
2023-01-21T11:41:11.120Z,18.1
2023-01-21T11:46:19.464Z,18.6
2023-01-21T11:51:31.598Z,17.1
2023-01-21T12:07:34.050Z,17.6
2023-01-21T12:28:49.296Z,16.9
2023-01-21T12:34:08.106Z,16.6
2023-01-21T12:44:46.057Z,17.6
2023-01-21T12:49:57.375Z,17
2023-01-21T12:55:10.471Z,18.2
2023-01-21T13:05:42.379Z,15.6
2023-01-21T13:16:19.145Z,16
2023-01-21T13:26:53.138Z,16.8
2023-01-21T13:32:05.344Z,16.3
2023-01-21T13:37:20.518Z,15.4
2023-01-21T13:42:47.841Z,16.2
2023-01-21T13:58:47.112Z,16.5
2023-01-21T14:09:24.574Z,15.3
2023-01-21T14:14:33.977Z,14.2
2023-01-21T14:19:48.798Z,15.3
2023-01-21T14:41:01.323Z,15.9
2023-01-21T14:51:33.215Z,15.1
2023-01-21T14:56:42.434Z,22.2
2023-01-21T15:07:24.515Z,16.9
2023-01-21T15:12:33.125Z,15.7
2023-01-21T15:17:44.658Z,15.5
2023-01-21T15:23:03.782Z,17.3
2023-01-21T15:28:16.354Z,16.6
2023-01-21T15:33:27.362Z,14.6
2023-01-21T15:38:38.788Z,14.7
2023-01-21T15:43:58.222Z,15.3
2023-01-21T15:49:09.745Z,15.8
2023-01-21T15:54:22.596Z,17.1
2023-01-21T16:04:54.133Z,25.7
2023-01-21T16:10:08.280Z,22.2
2023-01-21T16:15:21.069Z,18.3
2023-01-21T16:25:54.143Z,19.3
2023-01-21T16:52:31.480Z,15.9
2023-01-21T17:03:12.054Z,14.4
2023-01-21T17:08:28.901Z,15.2
2023-01-21T17:13:39.391Z,14
2023-01-21T17:29:46.006Z,14.2
2023-01-21T17:34:58.581Z,14.8
2023-01-21T17:40:09.773Z,15.5
2023-01-21T17:45:32.551Z,21.5
2023-01-21T17:50:46.551Z,17.8
2023-01-21T17:55:55.716Z,16.5
2023-01-21T18:01:13.091Z,18.5
2023-01-21T18:06:32.282Z,17.2
2023-01-21T18:11:41.166Z,15.9
2023-01-21T18:16:56.719Z,15.7
2023-01-21T18:22:12.877Z,14.1
2023-01-21T18:32:48.583Z,14.6
2023-01-21T18:38:04.498Z,15.3
2023-01-21T18:43:20.147Z,15.2
2023-01-21T18:48:31.983Z,15.7
2023-01-21T18:53:44.867Z,13.7
2023-01-21T18:58:56.760Z,13.1
2023-01-21T19:04:10.969Z,12.7
2023-01-21T19:09:21.367Z,12.4
2023-01-21T19:19:55.124Z,13.7
2023-01-21T19:25:12.029Z,13.1
2023-01-21T19:30:35.621Z,13.4
2023-01-21T19:35:42.411Z,18.4
2023-01-21T19:40:54.634Z,12.8
2023-01-21T19:51:36.174Z,12.7
2023-01-21T20:07:39.269Z,12.8
2023-01-21T20:13:00.137Z,13
2023-01-21T20:18:15.460Z,12.9
2023-01-21T20:23:35.909Z,14.4
2023-01-21T20:28:54.578Z,19
2023-01-21T20:34:18.265Z,21.6
2023-01-21T20:39:33.681Z,15.7
2023-01-21T20:44:54.721Z,14.7
2023-01-21T20:50:04.002Z,20
2023-01-21T20:55:24.968Z,14.5
2023-01-21T21:00:37.411Z,18.7
2023-01-21T21:05:53.249Z,13.7
2023-01-21T21:11:12.777Z,12.4
2023-01-21T21:16:33.938Z,14.2
2023-01-21T21:21:48.447Z,19.5
2023-01-21T21:27:03.975Z,14.3
2023-01-21T21:32:14.645Z,13.5
2023-01-21T21:37:29.952Z,18.5
2023-01-21T21:42:45.176Z,13.9
2023-01-21T21:47:56.986Z,13.1
2023-01-21T21:58:33.633Z,12.7
2023-01-21T22:03:47.625Z,19.4
2023-01-21T22:08:59.451Z,14.8
2023-01-21T22:14:15.230Z,12.9
2023-01-21T22:19:29.682Z,13.4
2023-01-21T22:24:47.535Z,19.1
2023-01-21T22:29:57.254Z,19.3
2023-01-21T22:40:28.119Z,14.5
2023-01-21T22:51:00.594Z,14.3
2023-01-21T22:56:20.778Z,14.5
2023-01-21T23:01:36.257Z,13.7
2023-01-21T23:06:50.965Z,14.9
2023-01-21T23:12:02.696Z,15.3
2023-01-21T23:17:19.423Z,13.5
2023-01-21T23:28:10.712Z,15.1
2023-01-21T23:33:18.669Z,14.4
2023-01-21T23:38:31.109Z,17.6
2023-01-21T23:43:46.507Z,24.4
2023-01-21T23:48:56.830Z,17.3
2023-01-21T23:54:09.604Z,16.5
2023-01-21T23:59:21.725Z,17.6
